createdAt,value
2023-04-16T00:00:35.929Z,93.70
2023-04-16T00:03:08.621Z,93.68
2023-04-16T00:05:41.110Z,93.70
2023-04-16T00:08:13.405Z,93.71
2023-04-16T00:10:45.663Z,93.64
2023-04-16T00:13:20.618Z,93.72
2023-04-16T00:15:52.871Z,93.74
2023-04-16T00:18:25.057Z,93.53
2023-04-16T00:20:57.246Z,93.40
2023-04-16T00:23:29.668Z,93.53
2023-04-16T00:26:02.060Z,93.74
2023-04-16T00:28:36.822Z,93.93
2023-04-16T00:31:09.159Z,94.27
2023-04-16T00:33:41.434Z,94.23
2023-04-16T00:36:14.035Z,94.06
2023-04-16T00:38:46.188Z,93.88
2023-04-16T00:41:18.407Z,93.96
2023-04-16T00:43:53.595Z,94.25
2023-04-16T00:46:27.697Z,94.11
2023-04-16T00:49:01.411Z,94.18
2023-04-16T00:51:34.623Z,94.16
2023-04-16T00:54:07.057Z,94.56
2023-04-16T00:56:40.722Z,94.72
2023-04-16T00:59:16.384Z,95.17
2023-04-16T01:01:48.654Z,95.24
2023-04-16T01:04:21.062Z,95.29
2023-04-16T01:06:53.531Z,95.19
2023-04-16T01:09:25.837Z,94.97
2023-04-16T01:11:58.124Z,94.88
2023-04-16T01:14:36.525Z,94.84
2023-04-16T01:17:08.900Z,94.77
2023-04-16T01:19:41.255Z,95.08
2023-04-16T01:22:16.522Z,94.62
2023-04-16T01:24:48.688Z,94.55
2023-04-16T01:27:20.873Z,94.51
2023-04-16T01:29:53.118Z,94.55
2023-04-16T01:32:25.505Z,94.36
2023-04-16T01:34:57.693Z,94.42
2023-04-16T01:37:32.510Z,94.46
2023-04-16T01:40:04.798Z,94.69
2023-04-16T01:42:37.038Z,94.68
2023-04-16T01:45:12.348Z,94.72
2023-04-16T01:47:45.095Z,94.61
2023-04-16T01:50:17.484Z,94.82
2023-04-16T01:52:52.415Z,94.72
2023-04-16T01:55:24.752Z,94.46
2023-04-16T01:57:56.889Z,94.65
2023-04-16T02:00:29.037Z,94.70
2023-04-16T02:03:01.665Z,94.52
2023-04-16T02:05:34.010Z,94.46
2023-04-16T02:08:09.279Z,94.11
2023-04-16T02:10:41.523Z,94.20
2023-04-16T02:13:14.004Z,93.93
2023-04-16T02:15:50.752Z,94.04
2023-04-16T02:18:23.225Z,94.10
2023-04-16T02:20:55.607Z,94.00
2023-04-16T02:23:31.033Z,93.92
2023-04-16T02:26:03.925Z,93.62
2023-04-16T02:28:36.134Z,94.03
2023-04-16T02:31:08.441Z,93.83
2023-04-16T02:33:40.666Z,93.35
2023-04-16T02:36:13.331Z,93.31
2023-04-16T02:38:48.063Z,93.02
2023-04-16T02:41:20.567Z,93.06
2023-04-16T02:43:52.832Z,93.12
2023-04-16T02:46:25.069Z,93.13
2023-04-16T02:48:57.273Z,93.36
2023-04-16T02:51:29.474Z,93.21
2023-04-16T02:54:04.130Z,93.19
2023-04-16T02:56:36.327Z,93.41
2023-04-16T02:59:08.693Z,93.63
2023-04-16T03:01:41.172Z,93.26
2023-04-16T03:04:13.601Z,93.24
2023-04-16T03:06:45.861Z,93.12
2023-04-16T03:09:20.700Z,93.27
2023-04-16T03:11:53.041Z,93.26
2023-04-16T03:14:25.328Z,93.15
2023-04-16T03:16:57.739Z,93.17
2023-04-16T03:19:29.976Z,93.23
2023-04-16T03:22:02.300Z,93.12
2023-04-16T03:24:37.802Z,93.13
2023-04-16T03:27:09.997Z,93.04
2023-04-16T03:29:42.231Z,93.10
2023-04-16T03:32:15.365Z,93.15
2023-04-16T03:34:47.652Z,93.20
2023-04-16T03:37:19.904Z,93.12
2023-04-16T03:39:54.773Z,93.18
2023-04-16T03:42:27.238Z,93.25
2023-04-16T03:44:59.617Z,93.10
2023-04-16T03:47:31.909Z,92.97
2023-04-16T03:50:04.192Z,93.09
2023-04-16T03:52:36.747Z,93.44
2023-04-16T03:55:12.426Z,93.36
2023-04-16T03:57:44.691Z,93.51
2023-04-16T04:00:17.293Z,93.40
2023-04-16T04:02:49.898Z,93.27
2023-04-16T04:05:22.254Z,93.02
2023-04-16T04:07:54.607Z,93.24
2023-04-16T04:10:29.462Z,93.19
2023-04-16T04:13:01.909Z,93.20
2023-04-16T04:15:34.099Z,93.44
2023-04-16T04:18:06.328Z,93.28
2023-04-16T04:20:38.576Z,93.27
2023-04-16T04:23:11.112Z,93.38
2023-04-16T04:25:46.145Z,93.47
2023-04-16T04:28:18.443Z,93.42
2023-04-16T04:30:50.693Z,93.49
2023-04-16T04:33:23.091Z,93.49
2023-04-16T04:35:55.889Z,93.53
2023-04-16T04:38:28.032Z,93.75
2023-04-16T04:41:04.352Z,93.54
2023-04-16T04:43:36.820Z,93.71
2023-04-16T04:46:09.226Z,93.73
2023-04-16T04:48:41.504Z,93.76
2023-04-16T04:51:13.791Z,93.76
2023-04-16T04:53:46.451Z,93.79
2023-04-16T04:56:21.468Z,93.90
2023-04-16T04:58:54.946Z,94.49
2023-04-16T05:01:27.097Z,94.60
2023-04-16T05:03:59.356Z,94.44
2023-04-16T05:06:31.605Z,94.41
2023-04-16T05:09:03.880Z,93.88
2023-04-16T05:11:38.901Z,93.95
2023-04-16T05:14:11.274Z,93.99
2023-04-16T05:16:43.498Z,93.70
2023-04-16T05:19:15.749Z,93.69
2023-04-16T05:21:48.003Z,93.79
2023-04-16T05:24:20.273Z,93.76
2023-04-16T05:26:55.033Z,93.63
2023-04-16T05:29:27.403Z,93.46
2023-04-16T05:31:59.868Z,93.65
2023-04-16T05:34:32.064Z,93.77
2023-04-16T05:37:04.275Z,93.81
2023-04-16T05:39:36.450Z,93.73
2023-04-16T05:42:11.494Z,93.55
2023-04-16T05:44:45.137Z,93.37
2023-04-16T05:47:17.663Z,93.43
2023-04-16T05:49:49.952Z,93.51
2023-04-16T05:52:22.259Z,93.51
2023-04-16T05:54:54.508Z,93.44
2023-04-16T05:57:29.478Z,93.69
2023-04-16T06:00:01.765Z,93.56
2023-04-16T06:02:34.786Z,93.57
2023-04-16T06:05:07.227Z,93.52
2023-04-16T06:07:39.498Z,93.67
2023-04-16T06:10:12.559Z,93.71
2023-04-16T06:12:47.495Z,93.74
2023-04-16T06:15:19.871Z,93.76
2023-04-16T06:17:52.117Z,93.64
2023-04-16T06:20:24.299Z,93.80
2023-04-16T06:22:56.786Z,93.58
2023-04-16T06:25:29.190Z,93.57
2023-04-16T06:28:04.063Z,93.57
2023-04-16T06:30:36.711Z,93.57
2023-04-16T06:33:09.116Z,93.39
2023-04-16T06:35:41.435Z,93.09
2023-04-16T06:38:13.664Z,92.95
2023-04-16T06:40:46.182Z,92.91
2023-04-16T06:43:21.859Z,92.80
2023-04-16T06:45:54.093Z,92.90
2023-04-16T06:48:26.356Z,92.86
2023-04-16T06:50:59.580Z,93.01
2023-04-16T06:53:31.956Z,93.05
2023-04-16T06:56:04.170Z,92.93
2023-04-16T06:58:38.981Z,93.06
2023-04-16T07:01:11.390Z,93.03
2023-04-16T07:03:44.246Z,93.01
2023-04-16T07:06:16.532Z,93.06
2023-04-16T07:08:48.731Z,92.81
2023-04-16T07:11:21.169Z,92.83
2023-04-16T07:13:57.064Z,92.67
2023-04-16T07:16:29.472Z,92.35
2023-04-16T07:19:01.730Z,92.23
2023-04-16T07:21:34.461Z,92.25
2023-04-16T07:24:07.079Z,91.92
2023-04-16T07:26:39.352Z,91.95
2023-04-16T07:29:14.261Z,91.86
2023-04-16T07:31:46.955Z,91.57
2023-04-16T07:34:19.351Z,91.60
2023-04-16T07:36:51.628Z,91.64
2023-04-16T07:39:23.866Z,91.75
2023-04-16T07:41:56.322Z,91.66
2023-04-16T07:44:31.278Z,91.97
2023-04-16T07:47:05.412Z,91.78
2023-04-16T07:49:38.171Z,91.39
2023-04-16T07:52:10.676Z,91.21
2023-04-16T07:54:42.846Z,91.12
2023-04-16T07:57:16.667Z,90.86
2023-04-16T07:59:51.615Z,90.54
2023-04-16T08:02:24.241Z,90.60
2023-04-16T08:04:56.605Z,90.41
2023-04-16T08:07:28.932Z,90.42
2023-04-16T08:10:01.151Z,90.12
2023-04-16T08:12:33.967Z,89.78
2023-04-16T08:15:09.784Z,89.71
2023-04-16T08:17:42.046Z,89.51
2023-04-16T08:20:17.025Z,89.48
2023-04-16T08:22:51.875Z,89.23
2023-04-16T08:25:24.905Z,88.89
2023-04-16T08:27:57.071Z,88.85
2023-04-16T08:30:32.099Z,88.83
2023-04-16T08:33:04.698Z,88.29
2023-04-16T08:35:37.595Z,88.30
2023-04-16T08:38:10.331Z,87.94
2023-04-16T08:40:44.009Z,88.02
2023-04-16T08:43:18.599Z,87.79
2023-04-16T08:45:56.468Z,88.12
2023-04-16T08:48:29.781Z,88.03
2023-04-16T08:51:05.549Z,87.64
2023-04-16T08:53:46.812Z,87.32
2023-04-16T08:56:24.042Z,87.15
2023-04-16T08:59:02.154Z,87.53
2023-04-16T09:01:39.190Z,87.51
2023-04-16T09:04:12.137Z,87.17
2023-04-16T09:06:47.530Z,87.18
2023-04-16T09:09:22.149Z,87.17
2023-04-16T09:11:56.397Z,86.83
2023-04-16T09:14:28.646Z,86.56
2023-04-16T09:17:04.943Z,86.53
2023-04-16T09:19:37.400Z,86.21
2023-04-16T09:22:10.170Z,86.11
2023-04-16T09:24:42.474Z,86.17
2023-04-16T09:27:16.709Z,86.04
2023-04-16T09:29:48.966Z,85.86
2023-04-16T09:32:30.392Z,85.54
2023-04-16T09:35:04.339Z,85.50
2023-04-16T09:37:36.514Z,85.28
2023-04-16T09:40:10.350Z,84.86
2023-04-16T09:42:42.838Z,84.47
2023-04-16T09:45:15.862Z,84.17
2023-04-16T09:47:50.714Z,84.13
2023-04-16T09:50:24.030Z,83.68
2023-04-16T09:52:56.403Z,83.93
2023-04-16T09:55:31.864Z,84.15
2023-04-16T09:58:05.237Z,83.72
2023-04-16T10:00:42.287Z,83.83
2023-04-16T10:03:18.766Z,83.89
2023-04-16T10:05:51.012Z,83.83
2023-04-16T10:08:23.299Z,83.83
2023-04-16T10:10:56.806Z,83.51
2023-04-16T10:13:31.366Z,83.56
2023-04-16T10:16:04.462Z,83.46
2023-04-16T10:18:41.725Z,83.40
2023-04-16T10:21:15.637Z,83.48
2023-04-16T10:23:49.830Z,83.38
2023-04-16T10:26:23.529Z,83.19
2023-04-16T10:28:56.914Z,83.05
2023-04-16T10:31:31.273Z,82.91
2023-04-16T10:34:07.571Z,83.16
2023-04-16T10:36:42.351Z,82.95
2023-04-16T10:39:17.224Z,82.97
2023-04-16T10:41:50.229Z,83.41
2023-04-16T10:44:24.231Z,83.16
2023-04-16T10:47:00.744Z,82.64
2023-04-16T10:49:35.561Z,82.58
2023-04-16T10:52:19.098Z,82.27
2023-04-16T10:54:52.031Z,82.03
2023-04-16T10:57:25.109Z,81.97
2023-04-16T11:00:02.704Z,82.57
2023-04-16T11:02:35.270Z,82.54
2023-04-16T11:05:10.765Z,82.71
2023-04-16T11:07:52.764Z,82.70
2023-04-16T11:10:25.005Z,82.69
2023-04-16T11:12:59.959Z,82.19
2023-04-16T11:15:33.870Z,82.20
2023-04-16T11:18:07.254Z,82.24
2023-04-16T11:20:46.158Z,81.95
2023-04-16T11:23:18.470Z,80.96
2023-04-16T11:25:51.914Z,80.63
2023-04-16T11:28:24.088Z,80.31
2023-04-16T11:30:56.377Z,80.63
2023-04-16T11:33:30.185Z,80.19
2023-04-16T11:36:05.065Z,79.88
2023-04-16T11:38:38.767Z,79.93
2023-04-16T11:41:11.208Z,79.58
2023-04-16T11:43:43.632Z,79.29
2023-04-16T11:46:26.999Z,79.58
2023-04-16T11:49:00.068Z,79.79
2023-04-16T11:51:34.946Z,80.12
2023-04-16T11:54:10.363Z,80.41
2023-04-16T11:56:51.039Z,80.66
2023-04-16T11:59:25.767Z,80.79
2023-04-16T12:01:59.573Z,80.73
2023-04-16T12:04:32.272Z,80.51
2023-04-16T12:07:15.808Z,80.17
2023-04-16T12:09:48.857Z,79.84
2023-04-16T12:12:31.670Z,79.82
2023-04-16T12:15:05.956Z,80.16
2023-04-16T12:17:39.946Z,80.18
2023-04-16T12:20:15.569Z,80.10
2023-04-16T12:22:54.053Z,80.13
2023-04-16T12:25:29.330Z,80.12
2023-04-16T12:28:02.361Z,79.99
2023-04-16T12:30:34.730Z,79.51
2023-04-16T12:33:21.451Z,79.27
2023-04-16T12:35:53.803Z,78.88
2023-04-16T12:38:28.837Z,78.46
2023-04-16T12:41:02.484Z,78.26
2023-04-16T12:43:35.041Z,78.41
2023-04-16T12:46:07.305Z,78.13
2023-04-16T12:48:39.527Z,77.72
2023-04-16T12:51:11.714Z,77.50
2023-04-16T12:53:46.557Z,77.54
2023-04-16T12:56:19.021Z,77.68
2023-04-16T12:58:52.146Z,78.13
2023-04-16T13:01:24.806Z,78.18
2023-04-16T13:03:57.449Z,78.61
2023-04-16T13:06:30.108Z,78.46
2023-04-16T13:09:07.779Z,78.48
2023-04-16T13:11:40.217Z,78.88
2023-04-16T13:14:12.524Z,78.73
2023-04-16T13:16:44.817Z,78.51
2023-04-16T13:19:19.299Z,78.28
2023-04-16T13:21:51.615Z,78.48
2023-04-16T13:24:26.390Z,77.72
2023-04-16T13:26:59.539Z,77.42
2023-04-16T13:29:31.795Z,77.49
2023-04-16T13:32:04.167Z,77.75
2023-04-16T13:34:36.809Z,77.54
2023-04-16T13:37:09.118Z,77.69
2023-04-16T13:39:43.923Z,76.93
2023-04-16T13:42:16.997Z,77.18
2023-04-16T13:44:53.191Z,76.93
2023-04-16T13:47:25.761Z,76.71
2023-04-16T13:49:58.133Z,76.51
2023-04-16T13:52:30.380Z,76.42
2023-04-16T13:55:05.220Z,76.18
2023-04-16T13:57:37.504Z,76.53
2023-04-16T14:00:13.345Z,76.55
2023-04-16T14:02:46.548Z,76.61
2023-04-16T14:05:19.640Z,75.85
2023-04-16T14:07:51.892Z,76.15
2023-04-16T14:10:26.803Z,75.76
2023-04-16T14:12:59.266Z,75.78
2023-04-16T14:15:31.770Z,75.88
2023-04-16T14:18:04.188Z,76.23
2023-04-16T14:20:36.436Z,76.46
2023-04-16T14:23:08.664Z,76.26
2023-04-16T14:25:43.726Z,75.16
2023-04-16T14:28:16.084Z,74.66
2023-04-16T14:30:48.364Z,74.24
2023-04-16T14:33:20.848Z,74.19
2023-04-16T14:35:53.177Z,74.24
2023-04-16T14:38:25.476Z,74.12
2023-04-16T14:41:00.556Z,74.23
2023-04-16T14:43:33.150Z,74.03
2023-04-16T14:46:06.712Z,73.66
2023-04-16T14:48:39.069Z,73.02
2023-04-16T14:51:11.377Z,72.83
2023-04-16T14:53:43.641Z,72.92
2023-04-16T14:56:18.493Z,72.95
2023-04-16T14:58:50.810Z,73.34
2023-04-16T15:01:23.249Z,73.69
2023-04-16T15:03:56.423Z,73.35
2023-04-16T15:06:28.877Z,73.15
2023-04-16T15:09:01.147Z,73.43
2023-04-16T15:11:36.009Z,72.82
2023-04-16T15:14:08.503Z,72.93
2023-04-16T15:16:41.245Z,72.98
2023-04-16T15:19:13.531Z,72.89
2023-04-16T15:21:48.744Z,72.91
2023-04-16T15:24:21.340Z,72.00
2023-04-16T15:26:56.367Z,71.14
2023-04-16T15:29:28.755Z,70.35
2023-04-16T15:32:01.031Z,69.97
2023-04-16T15:34:33.277Z,70.20
2023-04-16T15:37:05.535Z,70.49
2023-04-16T15:39:37.843Z,70.98
2023-04-16T15:42:13.293Z,70.88
2023-04-16T15:44:45.668Z,71.34
2023-04-16T15:47:17.914Z,72.07
2023-04-16T15:49:50.409Z,72.29
2023-04-16T15:52:22.866Z,72.66
2023-04-16T15:54:55.213Z,72.88
2023-04-16T15:57:30.171Z,72.90
2023-04-16T16:02:44.610Z,73.45
2023-04-16T16:05:18.872Z,73.76
2023-04-16T16:07:51.250Z,73.95
2023-04-16T16:10:23.504Z,74.14
2023-04-16T16:13:02.025Z,73.97
2023-04-16T16:15:34.301Z,74.05
2023-04-16T16:18:06.752Z,74.65
2023-04-16T16:20:40.729Z,74.70
2023-04-16T16:23:13.269Z,74.43
2023-04-16T16:25:45.631Z,74.85
2023-04-16T16:28:20.816Z,74.89
2023-04-16T16:30:55.813Z,75.10
2023-04-16T16:33:28.836Z,75.23
2023-04-16T16:36:01.266Z,75.49
2023-04-16T16:38:33.511Z,75.60
2023-04-16T16:41:05.991Z,75.90
2023-04-16T16:43:40.884Z,76.22
2023-04-16T16:46:13.173Z,75.94
2023-04-16T16:48:45.732Z,75.71
2023-04-16T16:51:19.118Z,76.13
2023-04-16T16:53:51.406Z,76.17
2023-04-16T16:56:23.601Z,75.97
2023-04-16T16:58:58.549Z,76.96
2023-04-16T17:01:31.628Z,77.71
2023-04-16T17:04:04.523Z,78.15
2023-04-16T17:06:36.978Z,78.46
2023-04-16T17:09:09.956Z,78.66
2023-04-16T17:11:42.573Z,79.01
2023-04-16T17:14:17.403Z,79.10
2023-04-16T17:16:50.062Z,78.91
2023-04-16T17:19:22.354Z,78.82
2023-04-16T17:21:54.799Z,78.86
2023-04-16T17:24:27.052Z,79.12
2023-04-16T17:26:59.272Z,79.54
2023-04-16T17:29:34.477Z,79.81
2023-04-16T17:32:07.487Z,80.12
2023-04-16T17:34:39.805Z,80.41
2023-04-16T17:37:12.079Z,80.69
2023-04-16T17:39:44.281Z,81.15
2023-04-16T17:42:16.667Z,81.44
2023-04-16T17:44:52.044Z,81.63
2023-04-16T17:47:24.289Z,81.77
2023-04-16T17:49:57.561Z,81.87
2023-04-16T17:52:29.902Z,81.81
2023-04-16T17:55:03.982Z,81.91
2023-04-16T17:57:36.670Z,81.92
2023-04-16T18:00:14.405Z,82.16
2023-04-16T18:02:47.063Z,81.94
2023-04-16T18:05:19.904Z,81.59
2023-04-16T18:07:52.183Z,81.55
2023-04-16T18:10:24.700Z,81.60
2023-04-16T18:12:56.996Z,81.93
2023-04-16T18:15:31.899Z,82.11
2023-04-16T18:18:04.133Z,82.36
2023-04-16T18:20:36.615Z,82.59
2023-04-16T18:23:08.992Z,82.89
2023-04-16T18:25:41.136Z,83.39
2023-04-16T18:28:14.272Z,83.66
2023-04-16T18:30:49.653Z,83.93
2023-04-16T18:33:48.922Z,84.16
2023-04-16T18:36:14.747Z,84.30
2023-04-16T18:39:00.295Z,84.32
2023-04-16T18:41:34.440Z,84.44
2023-04-16T18:44:06.644Z,84.55
2023-04-16T18:46:41.472Z,84.92
2023-04-16T18:49:13.871Z,84.94
2023-04-16T18:51:46.189Z,85.02
2023-04-16T18:54:20.200Z,85.06
2023-04-16T18:56:52.641Z,85.24
2023-04-16T18:59:24.829Z,85.72
2023-04-16T19:02:00.098Z,85.82
2023-04-16T19:04:32.465Z,85.98
2023-04-16T19:07:04.663Z,85.98
2023-04-16T19:09:36.930Z,86.22
2023-04-16T19:12:09.917Z,86.38
2023-04-16T19:14:42.218Z,86.22
2023-04-16T19:17:17.111Z,86.19
2023-04-16T19:19:49.361Z,86.35
2023-04-16T19:22:21.728Z,86.57
2023-04-16T19:24:54.845Z,86.45
2023-04-16T19:27:27.071Z,86.64
2023-04-16T19:29:59.318Z,86.80
2023-04-16T19:32:34.263Z,86.64
2023-04-16T19:35:06.715Z,86.36
2023-04-16T19:37:38.911Z,86.61
2023-04-16T19:40:12.625Z,86.66
2023-04-16T19:42:45.520Z,86.82
2023-04-16T19:45:18.493Z,86.72
2023-04-16T19:47:53.361Z,86.97
2023-04-16T19:50:25.913Z,87.16
2023-04-16T19:52:58.405Z,87.29
2023-04-16T19:55:30.606Z,87.37
2023-04-16T19:58:06.383Z,87.35
2023-04-16T20:00:42.180Z,87.47
2023-04-16T20:03:17.370Z,87.68
2023-04-16T20:05:52.436Z,87.71
2023-04-16T20:08:24.669Z,87.73
2023-04-16T20:10:57.617Z,87.88
2023-04-16T20:13:30.051Z,87.82
2023-04-16T20:16:02.292Z,87.77
2023-04-16T20:18:41.561Z,87.76
2023-04-16T20:21:15.050Z,87.83
2023-04-16T20:23:47.867Z,87.83
2023-04-16T20:26:21.046Z,87.73
2023-04-16T20:28:53.237Z,87.40
2023-04-16T20:31:25.533Z,87.45
2023-04-16T20:34:00.769Z,87.51
2023-04-16T20:36:33.073Z,87.47
2023-04-16T20:39:07.299Z,87.32
2023-04-16T20:41:43.983Z,87.07
2023-04-16T20:44:18.332Z,87.03
2023-04-16T20:46:51.134Z,87.41
2023-04-16T20:49:26.076Z,87.37
2023-04-16T20:51:58.340Z,87.51
2023-04-16T20:54:30.611Z,87.27
2023-04-16T20:57:04.818Z,87.11
2023-04-16T20:59:37.475Z,87.69
2023-04-16T21:02:10.141Z,87.85
2023-04-16T21:04:45.173Z,87.96
2023-04-16T21:07:17.554Z,88.06
2023-04-16T21:09:49.951Z,88.03
2023-04-16T21:12:22.199Z,88.18
2023-04-16T21:14:54.412Z,88.50
2023-04-16T21:17:26.668Z,88.81
2023-04-16T21:20:01.509Z,88.97
2023-04-16T21:22:33.740Z,89.07
2023-04-16T21:25:05.954Z,89.13
2023-04-16T21:27:38.186Z,88.96
2023-04-16T21:30:12.058Z,88.72
2023-04-16T21:32:44.380Z,88.43
2023-04-16T21:35:19.311Z,88.33
2023-04-16T21:37:51.589Z,88.26
2023-04-16T21:40:23.996Z,88.33
2023-04-16T21:42:56.245Z,88.24
2023-04-16T21:45:30.530Z,88.05
2023-04-16T21:48:02.987Z,88.16
2023-04-16T21:50:37.984Z,88.49
2023-04-16T21:53:10.517Z,88.31
2023-04-16T21:55:43.085Z,88.27
2023-04-16T21:58:15.852Z,88.29
2023-04-16T22:00:48.106Z,88.15
2023-04-16T22:03:26.500Z,88.36
2023-04-16T22:06:05.519Z,88.44
2023-04-16T22:08:38.122Z,88.63
2023-04-16T22:11:10.425Z,88.59
2023-04-16T22:13:42.782Z,88.57
2023-04-16T22:16:15.805Z,88.47
2023-04-16T22:18:48.043Z,88.65
2023-04-16T22:21:22.829Z,88.64
2023-04-16T22:23:55.050Z,88.41
2023-04-16T22:26:27.313Z,88.31
2023-04-16T22:28:59.580Z,88.73
2023-04-16T22:31:31.891Z,88.98
2023-04-16T22:34:04.131Z,89.28
2023-04-16T22:36:38.984Z,89.41
2023-04-16T22:39:11.583Z,89.46
2023-04-16T22:41:44.137Z,89.51
2023-04-16T22:44:16.359Z,89.57
2023-04-16T22:46:48.933Z,89.55
2023-04-16T22:49:21.228Z,89.66
2023-04-16T22:51:56.266Z,89.77
2023-04-16T22:54:32.541Z,89.78
2023-04-16T22:57:04.914Z,89.57
2023-04-16T22:59:37.093Z,89.82
2023-04-16T23:02:09.583Z,89.88
2023-04-16T23:04:41.805Z,90.00
2023-04-16T23:07:16.646Z,90.02
2023-04-16T23:09:48.881Z,90.21
2023-04-16T23:12:21.220Z,90.17
2023-04-16T23:14:53.470Z,90.05
2023-04-16T23:17:25.788Z,89.82
2023-04-16T23:19:58.007Z,89.44
2023-04-16T23:22:32.973Z,89.51
2023-04-16T23:25:05.211Z,89.43
2023-04-16T23:27:37.493Z,89.28
2023-04-16T23:30:11.140Z,89.33
2023-04-16T23:32:43.597Z,89.48
2023-04-16T23:35:20.525Z,89.76
2023-04-16T23:37:55.436Z,89.60
2023-04-16T23:40:27.709Z,89.58
2023-04-16T23:43:00.033Z,89.67
2023-04-16T23:45:32.275Z,89.92
2023-04-16T23:48:04.669Z,89.85
2023-04-16T23:50:36.987Z,89.86
2023-04-16T23:53:11.817Z,89.96
2023-04-16T23:55:44.060Z,89.87
2023-04-16T23:58:16.286Z,89.96
